createdAt,value
2022-11-01T00:03:24.787Z,22.27
2022-11-01T00:08:17.181Z,22.93
2022-11-01T00:13:09.336Z,28.83
2022-11-01T00:18:01.544Z,27.53
2022-11-01T00:22:53.708Z,28.70
2022-11-01T00:27:45.847Z,30.50
2022-11-01T00:32:38.055Z,27.73
2022-11-01T00:37:30.305Z,32.17
2022-11-01T00:42:22.964Z,25.27
2022-11-01T00:47:15.113Z,30.13
2022-11-01T00:52:07.292Z,27.10
2022-11-01T00:56:59.438Z,27.20
2022-11-01T01:01:51.783Z,29.57
2022-11-01T01:06:43.987Z,26.50
2022-11-01T01:11:36.178Z,30.17
2022-11-01T01:16:28.455Z,27.50
2022-11-01T01:21:20.667Z,25.23
2022-11-01T01:26:13.116Z,24.67
2022-11-01T01:31:09.494Z,26.33
2022-11-01T01:36:07.784Z,26.97
2022-11-01T01:41:19.611Z,27.70
2022-11-01T01:46:13.099Z,29.53
2022-11-01T01:51:10.008Z,28.87
2022-11-01T01:56:27.915Z,26.40
2022-11-01T02:01:20.110Z,29.53
2022-11-01T02:06:16.200Z,30.63
2022-11-01T02:11:12.137Z,32.20
2022-11-01T02:16:25.783Z,39.80
2022-11-01T02:21:41.847Z,35.13
2022-11-01T02:26:45.861Z,41.73
2022-11-01T02:32:02.061Z,51.97
2022-11-01T02:37:08.950Z,42.10
2022-11-01T02:42:23.876Z,38.00
2022-11-01T02:47:19.130Z,55.10
2022-11-01T02:52:15.177Z,49.33
2022-11-01T02:57:31.179Z,39.07
2022-11-01T03:02:41.717Z,40.00
2022-11-01T03:07:34.101Z,40.20
2022-11-01T03:17:47.636Z,38.13
2022-11-01T03:23:00.899Z,39.73
2022-11-01T03:27:55.201Z,31.93
2022-11-01T03:32:52.557Z,26.70
2022-11-01T03:37:48.129Z,22.73
2022-11-01T03:42:43.874Z,25.53
2022-11-01T03:47:39.466Z,24.77
2022-11-01T03:52:31.740Z,23.83
2022-11-01T03:57:24.028Z,19.93
2022-11-01T04:02:16.225Z,22.30
2022-11-01T04:07:08.633Z,22.60
2022-11-01T04:12:00.776Z,21.00
2022-11-01T04:17:12.682Z,21.93
2022-11-01T04:22:04.894Z,20.10
2022-11-01T04:26:57.073Z,19.77
2022-11-01T04:31:49.355Z,19.43
2022-11-01T04:36:41.626Z,21.10
2022-11-01T04:41:33.763Z,15.70
2022-11-01T04:46:26.071Z,24.70
2022-11-01T04:51:18.261Z,18.67
2022-11-01T04:56:13.593Z,20.13
2022-11-01T05:01:07.066Z,16.30
2022-11-01T05:06:00.660Z,17.57
2022-11-01T05:10:55.345Z,20.87
2022-11-01T05:15:59.527Z,18.43
2022-11-01T05:20:59.783Z,16.40
2022-11-01T05:25:54.131Z,16.27
2022-11-01T05:30:46.320Z,17.47
2022-11-01T05:35:38.455Z,16.67
2022-11-01T05:40:31.194Z,20.93
2022-11-01T05:45:23.578Z,20.47
2022-11-01T05:50:16.784Z,16.53
2022-11-01T05:55:10.185Z,17.60
2022-11-01T06:00:04.594Z,15.63
2022-11-01T06:05:04.311Z,20.03
2022-11-01T06:09:56.529Z,34.63
2022-11-01T06:14:48.725Z,28.50
2022-11-01T06:19:43.768Z,21.20
2022-11-01T06:24:36.009Z,17.83
2022-11-01T06:29:28.324Z,16.97
2022-11-01T06:34:22.961Z,19.77
2022-11-01T06:39:15.370Z,19.40
2022-11-01T06:44:08.164Z,30.87
2022-11-01T06:49:00.385Z,18.23
2022-11-01T06:53:52.559Z,75.47
2022-11-01T06:58:44.763Z,23.30
2022-11-01T07:03:39.875Z,17.03
2022-11-01T07:08:34.850Z,16.90
2022-11-01T07:13:38.277Z,18.07
2022-11-01T07:18:30.791Z,16.67
2022-11-01T07:23:25.998Z,18.33
2022-11-01T07:28:23.633Z,19.77
2022-11-01T07:33:19.020Z,12.23
2022-11-01T07:38:13.373Z,14.10
2022-11-01T07:43:10.576Z,11.20
2022-11-01T07:48:11.624Z,12.93
2022-11-01T07:53:10.040Z,11.97
2022-11-01T07:58:05.403Z,13.93
2022-11-01T08:03:10.389Z,11.33
2022-11-01T08:08:04.067Z,12.30
2022-11-01T08:13:17.032Z,12.97
2022-11-01T08:18:09.436Z,10.37
2022-11-01T08:23:02.045Z,11.53
2022-11-01T08:27:54.643Z,10.77
2022-11-01T08:32:52.890Z,11.23
2022-11-01T08:37:54.809Z,10.53
2022-11-01T08:42:49.668Z,11.23
2022-11-01T08:48:01.104Z,11.33
2022-11-01T08:52:59.017Z,10.50
2022-11-01T08:57:53.705Z,9.77
2022-11-01T09:02:48.591Z,18.50
2022-11-01T09:07:43.064Z,13.10
2022-11-01T09:12:57.841Z,12.30
2022-11-01T09:17:53.219Z,10.57
2022-11-01T09:22:45.899Z,11.10
2022-11-01T09:27:41.038Z,11.90
2022-11-01T09:32:35.636Z,11.27
2022-11-01T09:37:28.036Z,11.63
2022-11-01T09:42:36.992Z,12.60
2022-11-01T09:47:46.200Z,12.90
2022-11-01T09:52:40.784Z,12.40
2022-11-01T09:57:41.058Z,13.73
2022-11-01T10:02:54.436Z,12.87
2022-11-01T10:08:05.779Z,13.33
2022-11-01T10:13:37.783Z,13.30
2022-11-01T10:18:42.132Z,12.80
2022-11-01T10:23:57.530Z,13.50
2022-11-01T10:28:52.524Z,15.57
2022-11-01T10:34:02.716Z,11.67
2022-11-01T10:39:53.393Z,13.40
2022-11-01T10:44:43.869Z,14.13
2022-11-01T10:50:07.068Z,13.07
2022-11-01T10:55:05.501Z,15.07
2022-11-01T11:00:01.599Z,16.73
2022-11-01T11:04:54.003Z,15.07
2022-11-01T11:10:28.714Z,14.70
2022-11-01T11:15:44.891Z,12.90
2022-11-01T11:20:37.952Z,18.03
2022-11-01T11:25:37.425Z,13.27
2022-11-01T11:30:35.253Z,11.67
2022-11-01T11:35:54.305Z,14.73
2022-11-01T11:40:49.620Z,20.97
2022-11-01T11:46:12.313Z,13.17
2022-11-01T11:51:07.848Z,12.20
2022-11-01T11:56:09.320Z,12.33
2022-11-01T12:01:08.117Z,12.10
2022-11-01T12:06:11.179Z,10.80
2022-11-01T12:11:07.304Z,10.97
2022-11-01T12:22:21.549Z,12.33
2022-11-01T12:27:22.981Z,12.13
2022-11-01T12:32:25.303Z,11.03
2022-11-01T12:37:55.781Z,14.23
2022-11-01T12:43:09.861Z,15.27
2022-11-01T12:48:16.105Z,14.33
2022-11-01T12:53:16.525Z,10.33
2022-11-01T12:58:18.311Z,10.10
2022-11-01T13:03:39.171Z,11.20
2022-11-01T13:09:10.639Z,10.57
2022-11-01T13:14:55.441Z,14.73
2022-11-01T13:20:25.642Z,11.63
2022-11-01T13:25:46.711Z,14.73
2022-11-01T13:30:45.984Z,13.97
2022-11-01T13:36:15.744Z,17.40
2022-11-01T13:41:27.461Z,12.90
2022-11-01T13:46:43.927Z,13.43
2022-11-01T13:52:06.896Z,13.37
2022-11-01T13:57:09.162Z,15.03
2022-11-01T14:02:31.857Z,16.20
2022-11-01T14:07:46.934Z,18.27
2022-11-01T14:13:03.539Z,15.47
2022-11-01T14:18:20.755Z,17.37
2022-11-01T14:23:37.508Z,15.93
2022-11-01T14:28:31.519Z,16.20
2022-11-01T14:33:23.742Z,17.60
2022-11-01T14:38:21.686Z,19.93
2022-11-01T14:43:35.368Z,16.60
2022-11-01T14:48:44.182Z,16.73
2022-11-01T14:53:41.509Z,19.93
2022-11-01T14:58:37.365Z,16.77
2022-11-01T15:03:35.616Z,16.40
2022-11-01T15:08:53.039Z,16.10
2022-11-01T15:13:46.057Z,17.57
2022-11-01T15:18:47.051Z,21.53
2022-11-01T15:23:41.576Z,18.63
2022-11-01T15:29:06.287Z,20.33
2022-11-01T15:34:04.873Z,17.97
2022-11-01T15:39:04.985Z,18.80
2022-11-01T15:44:00.767Z,25.10
2022-11-01T15:49:04.505Z,23.10
2022-11-01T15:54:16.530Z,22.77
2022-11-01T15:59:34.343Z,25.97
2022-11-01T16:04:33.966Z,23.83
2022-11-01T16:09:55.276Z,23.00
2022-11-01T16:15:05.512Z,19.77
2022-11-01T16:20:04.804Z,21.53
2022-11-01T16:25:11.582Z,25.00
2022-11-01T16:30:33.978Z,23.40
2022-11-01T16:35:37.219Z,28.83
2022-11-01T16:40:34.252Z,29.03
2022-11-01T16:45:29.893Z,28.50
2022-11-01T16:50:27.487Z,32.53
2022-11-01T16:55:25.412Z,31.67
2022-11-01T17:00:20.937Z,30.30
2022-11-01T17:05:38.688Z,31.80
2022-11-01T17:10:39.155Z,32.97
2022-11-01T17:15:36.058Z,33.20
2022-11-01T17:20:38.262Z,34.00
2022-11-01T17:25:31.508Z,37.40
2022-11-01T17:35:59.926Z,34.50
2022-11-01T17:41:01.307Z,35.97
2022-11-01T17:46:00.004Z,37.67
2022-11-01T17:51:06.929Z,39.87
2022-11-01T17:56:01.762Z,39.73
2022-11-01T18:00:55.615Z,41.77
2022-11-01T18:05:57.953Z,46.80
2022-11-01T18:11:13.473Z,41.57
2022-11-01T18:16:49.711Z,44.47
2022-11-01T18:22:07.459Z,43.80
2022-11-01T18:27:03.197Z,46.83
2022-11-01T18:32:24.775Z,46.63
2022-11-01T18:37:47.124Z,47.53
2022-11-01T18:42:56.878Z,44.80
2022-11-01T18:48:05.219Z,51.87
2022-11-01T18:53:15.395Z,47.13
2022-11-01T18:58:44.897Z,42.93
2022-11-01T19:04:13.941Z,49.73
2022-11-01T19:09:30.516Z,65.47
2022-11-01T19:14:23.326Z,70.87
2022-11-01T19:19:26.900Z,52.90
2022-11-01T19:24:41.975Z,56.87
2022-11-01T19:29:39.812Z,154.07
2022-11-01T19:35:03.204Z,176.13
2022-11-01T19:40:02.666Z,101.50
2022-11-01T19:45:27.904Z,146.40
2022-11-01T19:50:41.031Z,70.37
2022-11-01T19:56:08.455Z,40.63
2022-11-01T20:01:11.257Z,40.23
2022-11-01T20:06:55.395Z,37.10
2022-11-01T20:12:10.478Z,49.83
2022-11-01T20:17:13.396Z,86.17
2022-11-01T20:22:09.191Z,55.03
2022-11-01T20:27:11.364Z,48.03
2022-11-01T20:32:10.203Z,41.37
2022-11-01T20:37:27.381Z,48.10
2022-11-01T20:42:27.620Z,37.43
2022-11-01T20:47:20.397Z,39.33
2022-11-01T20:52:39.780Z,37.77
2022-11-01T20:57:41.607Z,40.10
2022-11-01T21:02:34.795Z,37.00
2022-11-01T21:07:35.119Z,34.93
2022-11-01T21:12:41.864Z,31.37
2022-11-01T21:17:37.118Z,34.07
2022-11-01T21:22:30.497Z,31.50
2022-11-01T21:32:34.772Z,34.20
2022-11-01T21:37:29.708Z,29.90
2022-11-01T21:42:32.976Z,31.70
2022-11-01T21:47:30.021Z,30.93
2022-11-01T21:52:24.212Z,28.77
2022-11-01T21:57:17.570Z,28.93
2022-11-01T22:02:15.593Z,31.37
2022-11-01T22:07:09.271Z,24.87
2022-11-01T22:12:01.662Z,27.23
2022-11-01T22:16:57.179Z,26.93
2022-11-01T22:21:49.821Z,30.70
2022-11-01T22:27:10.224Z,32.20
2022-11-01T22:32:02.531Z,23.60
2022-11-01T22:37:42.163Z,21.83
2022-11-01T22:42:34.431Z,28.20
2022-11-01T22:47:33.393Z,25.33
2022-11-01T22:58:17.803Z,25.53
2022-11-01T23:04:25.103Z,21.90
2022-11-01T23:21:27.810Z,20.60
2022-11-01T23:26:39.285Z,21.70
2022-11-01T23:39:39.891Z,17.87
2022-11-01T23:44:37.217Z,17.40
2022-11-01T23:49:31.906Z,15.97
2022-11-01T23:54:42.136Z,25.73
2022-11-01T23:59:34.408Z,29.47
